sensor_id;sensor_type;location;lat;lon;timestamp;pressure;altitude;pressure_sealevel;temperature;humidity
68941;BME280;55982;51.476;7.552;2022-10-17T00:01:20;99927.88;;;15.43;100.00
68941;BME280;55982;51.476;7.552;2022-10-17T00:03:45;99939.69;;;15.53;100.00
68941;BME280;55982;51.476;7.552;2022-10-17T00:06:13;99935.56;;;15.47;100.00
68941;BME280;55982;51.476;7.552;2022-10-17T00:08:40;99933.53;;;15.52;100.00
68941;BME280;55982;51.476;7.552;2022-10-17T00:11:08;99930.69;;;15.57;100.00
68941;BME280;55982;51.476;7.552;2022-10-17T00:13:37;99931.13;;;15.65;100.00
68941;BME280;55982;51.476;7.552;2022-10-17T00:16:03;99937.00;;;15.70;100.00
68941;BME280;55982;51.476;7.552;2022-10-17T00:18:28;99926.63;;;15.67;100.00
68941;BME280;55982;51.476;7.552;2022-10-17T00:20:54;99926.47;;;15.70;100.00
68941;BME280;55982;51.476;7.552;2022-10-17T00:23:19;99926.16;;;15.76;100.00
68941;BME280;55982;51.476;7.552;2022-10-17T00:25:44;99932.97;;;15.80;100.00
68941;BME280;55982;51.476;7.552;2022-10-17T00:28:11;99928.28;;;15.85;100.00
68941;BME280;55982;51.476;7.552;2022-10-17T00:30:38;99930.59;;;15.91;100.00
68941;BME280;55982;51.476;7.552;2022-10-17T00:33:04;99935.56;;;15.97;100.00
68941;BME280;55982;51.476;7.552;2022-10-17T00:35:29;99929.69;;;15.92;100.00
68941;BME280;55982;51.476;7.552;2022-10-17T00:37:54;99923.78;;;15.87;100.00
68941;BME280;55982;51.476;7.552;2022-10-17T00:40:20;99922.97;;;15.87;100.00
68941;BME280;55982;51.476;7.552;2022-10-17T00:42:45;99924.66;;;15.88;100.00
68941;BME280;55982;51.476;7.552;2022-10-17T00:47:39;99927.38;;;15.86;100.00
68941;BME280;55982;51.476;7.552;2022-10-17T00:50:07;99926.28;;;15.90;100.00
68941;BME280;55982;51.476;7.552;2022-10-17T00:52:33;99925.34;;;15.91;100.00
68941;BME280;55982;51.476;7.552;2022-10-17T00:55:05;99933.00;;;15.96;100.00
68941;BME280;55982;51.476;7.552;2022-10-17T00:57:33;99927.31;;;16.03;100.00
68941;BME280;55982;51.476;7.552;2022-10-17T01:00:02;99922.28;;;15.99;100.00
68941;BME280;55982;51.476;7.552;2022-10-17T01:02:28;99921.59;;;15.95;100.00
68941;BME280;55982;51.476;7.552;2022-10-17T01:04:55;99921.78;;;15.92;100.00
68941;BME280;55982;51.476;7.552;2022-10-17T01:07:21;99920.06;;;15.91;100.00
68941;BME280;55982;51.476;7.552;2022-10-17T01:09:47;99913.59;;;15.97;100.00
68941;BME280;55982;51.476;7.552;2022-10-17T01:24:11;99913.09;;;15.90;100.00
68941;BME280;55982;51.476;7.552;2022-10-17T01:32:08;99922.38;;;15.97;100.00
68941;BME280;55982;51.476;7.552;2022-10-17T01:37:47;99920.38;;;15.85;100.00
68941;BME280;55982;51.476;7.552;2022-10-17T01:40:24;99918.16;;;15.78;100.00
68941;BME280;55982;51.476;7.552;2022-10-17T01:42:58;99920.56;;;15.82;100.00
68941;BME280;55982;51.476;7.552;2022-10-17T01:45:33;99915.41;;;15.79;100.00
68941;BME280;55982;51.476;7.552;2022-10-17T01:48:06;99913.56;;;15.81;100.00
68941;BME280;55982;51.476;7.552;2022-10-17T01:50:37;99915.41;;;15.79;100.00
68941;BME280;55982;51.476;7.552;2022-10-17T01:53:27;99906.41;;;15.83;100.00
68941;BME280;55982;51.476;7.552;2022-10-17T01:55:55;99910.91;;;15.81;100.00
68941;BME280;55982;51.476;7.552;2022-10-17T01:58:29;99897.41;;;15.87;100.00
68941;BME280;55982;51.476;7.552;2022-10-17T02:00:58;99895.41;;;15.92;100.00
68941;BME280;55982;51.476;7.552;2022-10-17T02:03:27;99884.84;;;15.92;100.00
68941;BME280;55982;51.476;7.552;2022-10-17T02:05:53;99892.34;;;16.00;100.00
68941;BME280;55982;51.476;7.552;2022-10-17T02:08:27;99902.03;;;15.99;100.00
68941;BME280;55982;51.476;7.552;2022-10-17T02:11:00;99896.56;;;16.02;100.00
68941;BME280;55982;51.476;7.552;2022-10-17T02:16:44;99897.97;;;16.09;100.00
68941;BME280;55982;51.476;7.552;2022-10-17T02:25:28;99895.25;;;16.11;100.00
68941;BME280;55982;51.476;7.552;2022-10-17T02:28:06;99902.06;;;16.15;100.00
68941;BME280;55982;51.476;7.552;2022-10-17T02:30:52;99889.31;;;16.23;100.00
68941;BME280;55982;51.476;7.552;2022-10-17T02:33:34;99891.16;;;16.21;100.00
68941;BME280;55982;51.476;7.552;2022-10-17T02:36:08;99895.25;;;16.26;100.00
68941;BME280;55982;51.476;7.552;2022-10-17T02:38:36;99894.94;;;16.32;100.00
68941;BME280;55982;51.476;7.552;2022-10-17T02:41:04;99895.34;;;16.25;100.00
68941;BME280;55982;51.476;7.552;2022-10-17T02:43:30;99896.47;;;16.36;100.00
68941;BME280;55982;51.476;7.552;2022-10-17T02:45:55;99889.13;;;16.41;100.00
68941;BME280;55982;51.476;7.552;2022-10-17T02:48:26;99901.06;;;16.48;100.00
68941;BME280;55982;51.476;7.552;2022-10-17T02:53:58;99890.34;;;16.52;100.00
68941;BME280;55982;51.476;7.552;2022-10-17T02:56:27;99884.97;;;16.53;100.00
68941;BME280;55982;51.476;7.552;2022-10-17T02:58:57;99885.56;;;16.58;100.00
68941;BME280;55982;51.476;7.552;2022-10-17T03:01:24;99887.75;;;16.66;100.00
68941;BME280;55982;51.476;7.552;2022-10-17T03:03:49;99883.34;;;16.51;100.00
68941;BME280;55982;51.476;7.552;2022-10-17T03:06:15;99878.06;;;16.51;100.00
68941;BME280;55982;51.476;7.552;2022-10-17T03:08:40;99886.94;;;16.50;100.00
68941;BME280;55982;51.476;7.552;2022-10-17T03:11:05;99882.53;;;16.50;100.00
68941;BME280;55982;51.476;7.552;2022-10-17T03:13:31;99892.22;;;16.50;100.00
68941;BME280;55982;51.476;7.552;2022-10-17T03:15:56;99894.41;;;16.41;100.00
68941;BME280;55982;51.476;7.552;2022-10-17T03:18:21;99890.81;;;16.42;100.00
68941;BME280;55982;51.476;7.552;2022-10-17T03:20:47;99889.59;;;16.50;100.00
68941;BME280;55982;51.476;7.552;2022-10-17T03:23:12;99894.16;;;16.46;100.00
68941;BME280;55982;51.476;7.552;2022-10-17T03:25:38;99899.50;;;16.44;100.00
68941;BME280;55982;51.476;7.552;2022-10-17T03:28:04;99900.97;;;16.34;100.00
68941;BME280;55982;51.476;7.552;2022-10-17T03:30:30;99893.06;;;16.34;100.00
68941;BME280;55982;51.476;7.552;2022-10-17T03:32:57;99885.72;;;16.39;100.00
68941;BME280;55982;51.476;7.552;2022-10-17T03:35:22;99890.13;;;16.23;100.00
68941;BME280;55982;51.476;7.552;2022-10-17T03:37:48;99899.78;;;16.24;100.00
68941;BME280;55982;51.476;7.552;2022-10-17T03:40:13;99897.56;;;16.32;100.00
68941;BME280;55982;51.476;7.552;2022-10-17T03:42:39;99904.38;;;16.36;100.00
68941;BME280;55982;51.476;7.552;2022-10-17T03:45:04;99900.69;;;16.39;100.00
68941;BME280;55982;51.476;7.552;2022-10-17T03:47:30;99913.22;;;16.35;100.00
68941;BME280;55982;51.476;7.552;2022-10-17T03:49:55;99901.75;;;16.36;100.00
68941;BME280;55982;51.476;7.552;2022-10-17T03:52:21;99907.16;;;16.33;100.00
68941;BME280;55982;51.476;7.552;2022-10-17T03:54:46;99904.28;;;16.38;100.00
68941;BME280;55982;51.476;7.552;2022-10-17T03:57:11;99903.44;;;16.37;100.00
68941;BME280;55982;51.476;7.552;2022-10-17T03:59:37;99916.53;;;16.39;100.00
68941;BME280;55982;51.476;7.552;2022-10-17T04:02:02;99905.56;;;16.46;100.00
68941;BME280;55982;51.476;7.552;2022-10-17T04:04:28;99907.88;;;16.53;100.00
68941;BME280;55982;51.476;7.552;2022-10-17T04:06:53;99906.00;;;16.55;100.00
68941;BME280;55982;51.476;7.552;2022-10-17T04:09:19;99911.28;;;16.55;100.00
68941;BME280;55982;51.476;7.552;2022-10-17T04:11:44;99917.59;;;16.52;100.00
68941;BME280;55982;51.476;7.552;2022-10-17T04:14:10;99923.13;;;16.47;100.00
68941;BME280;55982;51.476;7.552;2022-10-17T04:16:35;99924.69;;;16.52;100.00
68941;BME280;55982;51.476;7.552;2022-10-17T04:19:00;99927.31;;;16.52;100.00
68941;BME280;55982;51.476;7.552;2022-10-17T04:21:27;99926.69;;;16.46;100.00
68941;BME280;55982;51.476;7.552;2022-10-17T04:23:59;99927.97;;;16.39;100.00
68941;BME280;55982;51.476;7.552;2022-10-17T04:26:26;99923.63;;;16.38;100.00
68941;BME280;55982;51.476;7.552;2022-10-17T04:28:52;99926.28;;;16.38;100.00
68941;BME280;55982;51.476;7.552;2022-10-17T04:31:17;99918.41;;;16.37;100.00
68941;BME280;55982;51.476;7.552;2022-10-17T04:33:46;99922.69;;;16.39;100.00
68941;BME280;55982;51.476;7.552;2022-10-17T04:36:14;99920.63;;;16.44;100.00
68941;BME280;55982;51.476;7.552;2022-10-17T04:38:40;99917.06;;;16.45;100.00
68941;BME280;55982;51.476;7.552;2022-10-17T04:41:08;99917.53;;;16.54;100.00
68941;BME280;55982;51.476;7.552;2022-10-17T04:43:36;99925.28;;;16.57;100.00
68941;BME280;55982;51.476;7.552;2022-10-17T04:46:04;99915.31;;;16.62;100.00
68941;BME280;55982;51.476;7.552;2022-10-17T04:48:30;99916.91;;;16.64;100.00
68941;BME280;55982;51.476;7.552;2022-10-17T04:51:04;99918.88;;;16.61;100.00
68941;BME280;55982;51.476;7.552;2022-10-17T04:53:31;99921.19;;;16.67;100.00
68941;BME280;55982;51.476;7.552;2022-10-17T04:55:56;99925.59;;;16.66;100.00
68941;BME280;55982;51.476;7.552;2022-10-17T04:58:22;99917.59;;;16.68;100.00
68941;BME280;55982;51.476;7.552;2022-10-17T05:00:48;99934.81;;;16.75;100.00
68941;BME280;55982;51.476;7.552;2022-10-17T05:03:13;99932.84;;;16.78;100.00
68941;BME280;55982;51.476;7.552;2022-10-17T05:05:40;99940.16;;;16.89;100.00
68941;BME280;55982;51.476;7.552;2022-10-17T05:08:07;99932.22;;;16.89;100.00
68941;BME280;55982;51.476;7.552;2022-10-17T05:10:36;99933.94;;;16.90;100.00
68941;BME280;55982;51.476;7.552;2022-10-17T05:13:02;99919.97;;;16.88;100.00
68941;BME280;55982;51.476;7.552;2022-10-17T05:15:27;99932.41;;;16.86;100.00
68941;BME280;55982;51.476;7.552;2022-10-17T05:17:54;99924.69;;;16.83;100.00
68941;BME280;55982;51.476;7.552;2022-10-17T05:20:20;99939.75;;;16.81;100.00
68941;BME280;55982;51.476;7.552;2022-10-17T05:22:45;99937.13;;;16.81;100.00
68941;BME280;55982;51.476;7.552;2022-10-17T05:25:11;99939.91;;;16.78;100.00
68941;BME280;55982;51.476;7.552;2022-10-17T05:27:36;99941.25;;;16.85;100.00
68941;BME280;55982;51.476;7.552;2022-10-17T05:30:02;99946.53;;;16.85;100.00
68941;BME280;55982;51.476;7.552;2022-10-17T05:32:28;99958.31;;;16.95;100.00
68941;BME280;55982;51.476;7.552;2022-10-17T05:34:53;99951.16;;;16.97;100.00
68941;BME280;55982;51.476;7.552;2022-10-17T05:37:18;99956.63;;;16.94;100.00
68941;BME280;55982;51.476;7.552;2022-10-17T05:39:44;99957.97;;;17.01;100.00
68941;BME280;55982;51.476;7.552;2022-10-17T05:42:09;99959.84;;;16.99;100.00
68941;BME280;55982;51.476;7.552;2022-10-17T05:44:34;99954.41;;;17.02;100.00
68941;BME280;55982;51.476;7.552;2022-10-17T05:47:00;99949.28;;;16.99;100.00
68941;BME280;55982;51.476;7.552;2022-10-17T05:49:25;99948.84;;;16.91;100.00
68941;BME280;55982;51.476;7.552;2022-10-17T05:51:51;99948.78;;;16.92;100.00
68941;BME280;55982;51.476;7.552;2022-10-17T05:54:16;99950.66;;;16.90;100.00
68941;BME280;55982;51.476;7.552;2022-10-17T05:56:41;99954.31;;;16.88;100.00
68941;BME280;55982;51.476;7.552;2022-10-17T05:59:07;99961.72;;;16.97;100.00
68941;BME280;55982;51.476;7.552;2022-10-17T06:01:32;99957.72;;;17.05;100.00
68941;BME280;55982;51.476;7.552;2022-10-17T06:03:58;99963.09;;;17.04;100.00
68941;BME280;55982;51.476;7.552;2022-10-17T06:06:23;99971.75;;;17.06;100.00
68941;BME280;55982;51.476;7.552;2022-10-17T06:08:48;99972.53;;;17.08;100.00
68941;BME280;55982;51.476;7.552;2022-10-17T06:11:14;99982.34;;;17.06;100.00
68941;BME280;55982;51.476;7.552;2022-10-17T06:13:39;99982.19;;;17.09;100.00
68941;BME280;55982;51.476;7.552;2022-10-17T06:16:05;99985.25;;;17.17;100.00
68941;BME280;55982;51.476;7.552;2022-10-17T06:18:31;99980.53;;;17.22;100.00
68941;BME280;55982;51.476;7.552;2022-10-17T06:21:05;99976.97;;;17.23;100.00
68941;BME280;55982;51.476;7.552;2022-10-17T06:23:30;99981.81;;;17.30;100.00
68941;BME280;55982;51.476;7.552;2022-10-17T06:26:00;99991.31;;;17.33;100.00
68941;BME280;55982;51.476;7.552;2022-10-17T06:28:26;100005.50;;;17.32;100.00
68941;BME280;55982;51.476;7.552;2022-10-17T06:30:51;100002.41;;;17.39;100.00
68941;BME280;55982;51.476;7.552;2022-10-17T06:33:16;99999.31;;;17.47;100.00
68941;BME280;55982;51.476;7.552;2022-10-17T06:35:42;100000.88;;;17.51;100.00
68941;BME280;55982;51.476;7.552;2022-10-17T06:38:08;100007.69;;;17.55;100.00
68941;BME280;55982;51.476;7.552;2022-10-17T06:40:34;100005.63;;;17.60;100.00
68941;BME280;55982;51.476;7.552;2022-10-17T06:42:59;100018.94;;;17.59;100.00
68941;BME280;55982;51.476;7.552;2022-10-17T06:45:24;100021.50;;;17.60;100.00
68941;BME280;55982;51.476;7.552;2022-10-17T06:47:50;100023.03;;;17.64;100.00
68941;BME280;55982;51.476;7.552;2022-10-17T06:50:15;100030.72;;;17.69;100.00
68941;BME280;55982;51.476;7.552;2022-10-17T06:52:41;100030.50;;;17.72;100.00
68941;BME280;55982;51.476;7.552;2022-10-17T06:55:06;100029.50;;;17.74;100.00
68941;BME280;55982;51.476;7.552;2022-10-17T06:57:32;100034.59;;;17.77;100.00
68941;BME280;55982;51.476;7.552;2022-10-17T06:59:57;100025.63;;;17.80;100.00
68941;BME280;55982;51.476;7.552;2022-10-17T07:02:23;100029.03;;;17.82;100.00
68941;BME280;55982;51.476;7.552;2022-10-17T07:04:48;100022.91;;;17.95;100.00
68941;BME280;55982;51.476;7.552;2022-10-17T07:07:14;100025.47;;;17.97;100.00
68941;BME280;55982;51.476;7.552;2022-10-17T07:09:39;100027.00;;;18.01;100.00
68941;BME280;55982;51.476;7.552;2022-10-17T07:12:04;100014.25;;;18.07;100.00
68941;BME280;55982;51.476;7.552;2022-10-17T07:14:32;100019.91;;;18.15;100.00
68941;BME280;55982;51.476;7.552;2022-10-17T07:16:58;100021.72;;;18.29;100.00
68941;BME280;55982;51.476;7.552;2022-10-17T07:19:24;100030.25;;;18.34;100.00
68941;BME280;55982;51.476;7.552;2022-10-17T07:21:51;100035.25;;;18.39;100.00
68941;BME280;55982;51.476;7.552;2022-10-17T07:24:16;100033.34;;;18.41;100.00
68941;BME280;55982;51.476;7.552;2022-10-17T07:26:42;100039.94;;;18.49;100.00
68941;BME280;55982;51.476;7.552;2022-10-17T07:29:08;100049.09;;;18.58;100.00
68941;BME280;55982;51.476;7.552;2022-10-17T07:31:34;100042.31;;;18.54;100.00
68941;BME280;55982;51.476;7.552;2022-10-17T07:33:59;100049.47;;;18.66;100.00
68941;BME280;55982;51.476;7.552;2022-10-17T07:36:25;100048.50;;;18.81;100.00
68941;BME280;55982;51.476;7.552;2022-10-17T07:38:50;100051.69;;;19.00;100.00
68941;BME280;55982;51.476;7.552;2022-10-17T07:41:15;100057.06;;;19.12;100.00
68941;BME280;55982;51.476;7.552;2022-10-17T07:43:41;100048.97;;;19.28;100.00
68941;BME280;55982;51.476;7.552;2022-10-17T07:46:07;100042.44;;;19.60;100.00
68941;BME280;55982;51.476;7.552;2022-10-17T07:48:33;100052.94;;;20.01;100.00
68941;BME280;55982;51.476;7.552;2022-10-17T07:51:04;100051.25;;;20.13;100.00
68941;BME280;55982;51.476;7.552;2022-10-17T07:53:29;100047.84;;;20.11;100.00
68941;BME280;55982;51.476;7.552;2022-10-17T07:55:55;100040.19;;;19.93;100.00
68941;BME280;55982;51.476;7.552;2022-10-17T07:58:20;100044.09;;;19.88;100.00
68941;BME280;55982;51.476;7.552;2022-10-17T08:00:45;100041.41;;;19.75;100.00
68941;BME280;55982;51.476;7.552;2022-10-17T08:03:15;100037.97;;;19.61;100.00
68941;BME280;55982;51.476;7.552;2022-10-17T08:05:40;100055.34;;;19.52;100.00
68941;BME280;55982;51.476;7.552;2022-10-17T08:08:07;100053.66;;;19.51;100.00
68941;BME280;55982;51.476;7.552;2022-10-17T08:10:32;100055.34;;;19.52;100.00
68941;BME280;55982;51.476;7.552;2022-10-17T08:12:58;100053.09;;;19.46;100.00
68941;BME280;55982;51.476;7.552;2022-10-17T08:15:24;100052.34;;;19.44;100.00
68941;BME280;55982;51.476;7.552;2022-10-17T08:17:50;100058.31;;;19.48;100.00
68941;BME280;55982;51.476;7.552;2022-10-17T08:20:16;100042.84;;;19.54;100.00
68941;BME280;55982;51.476;7.552;2022-10-17T08:22:41;100050.75;;;19.68;100.00
68941;BME280;55982;51.476;7.552;2022-10-17T08:25:07;100057.78;;;19.94;100.00
68941;BME280;55982;51.476;7.552;2022-10-17T08:27:33;100050.53;;;20.36;100.00
68941;BME280;55982;51.476;7.552;2022-10-17T08:29:59;100050.19;;;20.78;100.00
68941;BME280;55982;51.476;7.552;2022-10-17T08:32:26;100050.50;;;21.22;100.00
68941;BME280;55982;51.476;7.552;2022-10-17T08:34:52;100064.38;;;21.62;100.00
68941;BME280;55982;51.476;7.552;2022-10-17T08:37:20;100065.25;;;21.62;100.00
68941;BME280;55982;51.476;7.552;2022-10-17T08:39:45;100067.72;;;22.00;100.00
68941;BME280;55982;51.476;7.552;2022-10-17T08:42:44;100066.44;;;22.17;100.00
68941;BME280;55982;51.476;7.552;2022-10-17T08:45:20;100056.88;;;22.25;100.00
68941;BME280;55982;51.476;7.552;2022-10-17T08:47:51;100060.34;;;22.60;100.00
68941;BME280;55982;51.476;7.552;2022-10-17T08:53:39;100078.75;;;22.74;100.00
68941;BME280;55982;51.476;7.552;2022-10-17T08:56:15;100079.97;;;22.82;100.00
68941;BME280;55982;51.476;7.552;2022-10-17T08:58:43;100077.38;;;23.78;94.73
68941;BME280;55982;51.476;7.552;2022-10-17T09:06:38;100084.94;;;24.05;90.31
68941;BME280;55982;51.476;7.552;2022-10-17T09:19:59;100080.09;;;24.40;88.04
68941;BME280;55982;51.476;7.552;2022-10-17T09:22:32;100082.03;;;23.97;90.63
68941;BME280;55982;51.476;7.552;2022-10-17T09:25:02;100086.69;;;23.52;93.56
68941;BME280;55982;51.476;7.552;2022-10-17T09:27:40;100082.25;;;23.08;94.33
68941;BME280;55982;51.476;7.552;2022-10-17T09:33:00;100099.88;;;23.11;96.76
68941;BME280;55982;51.476;7.552;2022-10-17T09:35:33;100091.13;;;22.76;97.96
68941;BME280;55982;51.476;7.552;2022-10-17T09:37:59;100099.22;;;23.07;96.45
68941;BME280;55982;51.476;7.552;2022-10-17T09:40:31;100110.28;;;23.79;91.88
68941;BME280;55982;51.476;7.552;2022-10-17T09:42:59;100122.91;;;24.61;87.05
68941;BME280;55982;51.476;7.552;2022-10-17T09:45:27;100127.25;;;25.43;83.05
68941;BME280;55982;51.476;7.552;2022-10-17T09:48:10;100124.63;;;24.71;85.51
68941;BME280;55982;51.476;7.552;2022-10-17T09:50:39;100128.53;;;25.48;81.60
68941;BME280;55982;51.476;7.552;2022-10-17T09:53:12;100124.31;;;25.65;80.32
68941;BME280;55982;51.476;7.552;2022-10-17T09:55:51;100129.84;;;25.23;81.84
68941;BME280;55982;51.476;7.552;2022-10-17T09:58:20;100134.25;;;26.31;78.87
68941;BME280;55982;51.476;7.552;2022-10-17T10:00:46;100125.31;;;25.14;80.53
68941;BME280;55982;51.476;7.552;2022-10-17T10:03:25;100135.72;;;25.17;83.28
68941;BME280;55982;51.476;7.552;2022-10-17T10:06:05;100133.38;;;24.94;84.25
68941;BME280;55982;51.476;7.552;2022-10-17T10:11:14;100150.28;;;24.12;87.78
68941;BME280;55982;51.476;7.552;2022-10-17T10:13:41;100147.91;;;23.87;90.70
68941;BME280;55982;51.476;7.552;2022-10-17T10:16:14;100152.13;;;23.57;93.02
68941;BME280;55982;51.476;7.552;2022-10-17T10:18:41;100154.47;;;23.07;94.69
68941;BME280;55982;51.476;7.552;2022-10-17T10:21:21;100160.88;;;22.93;94.80
68941;BME280;55982;51.476;7.552;2022-10-17T10:24:05;100168.09;;;22.58;98.06
68941;BME280;55982;51.476;7.552;2022-10-17T10:29:29;100170.72;;;22.12;100.00
68941;BME280;55982;51.476;7.552;2022-10-17T10:32:08;100178.09;;;22.09;100.00
68941;BME280;55982;51.476;7.552;2022-10-17T10:34:34;100178.84;;;22.11;100.00
68941;BME280;55982;51.476;7.552;2022-10-17T10:37:14;100185.94;;;21.99;100.00
68941;BME280;55982;51.476;7.552;2022-10-17T10:39:48;100188.06;;;21.94;100.00
68941;BME280;55982;51.476;7.552;2022-10-17T10:42:25;100189.78;;;21.95;100.00
68941;BME280;55982;51.476;7.552;2022-10-17T10:44:53;100193.91;;;21.99;100.00
68941;BME280;55982;51.476;7.552;2022-10-17T10:47:25;100195.19;;;22.17;99.93
68941;BME280;55982;51.476;7.552;2022-10-17T10:50:06;100206.03;;;22.27;100.00
68941;BME280;55982;51.476;7.552;2022-10-17T10:52:46;100198.44;;;22.10;100.00
68941;BME280;55982;51.476;7.552;2022-10-17T10:57:46;100202.56;;;21.90;100.00
68941;BME280;55982;51.476;7.552;2022-10-17T11:00:18;100206.06;;;22.03;100.00
68941;BME280;55982;51.476;7.552;2022-10-17T11:03:11;100208.47;;;22.06;100.00
68941;BME280;55982;51.476;7.552;2022-10-17T11:05:43;100210.84;;;22.22;100.00
68941;BME280;55982;51.476;7.552;2022-10-17T11:08:42;100219.31;;;22.16;100.00
68941;BME280;55982;51.476;7.552;2022-10-17T11:16:46;100230.28;;;22.35;100.00
68941;BME280;55982;51.476;7.552;2022-10-17T11:19:24;100239.44;;;22.20;100.00
68941;BME280;55982;51.476;7.552;2022-10-17T11:24:42;100243.88;;;22.32;100.00
68941;BME280;55982;51.476;7.552;2022-10-17T11:27:09;100254.53;;;22.08;100.00
68941;BME280;55982;51.476;7.552;2022-10-17T11:29:38;100262.22;;;22.00;100.00
68941;BME280;55982;51.476;7.552;2022-10-17T11:32:10;100268.84;;;21.95;100.00
68941;BME280;55982;51.476;7.552;2022-10-17T11:34:45;100262.88;;;21.78;100.00
68941;BME280;55982;51.476;7.552;2022-10-17T11:37:19;100262.72;;;21.81;100.00
68941;BME280;55982;51.476;7.552;2022-10-17T11:39:56;100263.97;;;21.89;100.00
68941;BME280;55982;51.476;7.552;2022-10-17T11:42:30;100268.03;;;21.81;100.00
68941;BME280;55982;51.476;7.552;2022-10-17T11:45:09;100265.03;;;21.73;100.00
68941;BME280;55982;51.476;7.552;2022-10-17T11:47:42;100253.88;;;21.68;100.00
68941;BME280;55982;51.476;7.552;2022-10-17T11:50:34;100252.69;;;21.85;100.00
68941;BME280;55982;51.476;7.552;2022-10-17T11:53:12;100262.34;;;21.99;100.00
68941;BME280;55982;51.476;7.552;2022-10-17T11:55:39;100258.19;;;21.95;100.00
68941;BME280;55982;51.476;7.552;2022-10-17T12:06:38;100242.56;;;22.14;100.00
68941;BME280;55982;51.476;7.552;2022-10-17T12:09:19;100236.38;;;22.13;100.00
68941;BME280;55982;51.476;7.552;2022-10-17T12:11:55;100226.81;;;22.11;100.00
68941;BME280;55982;51.476;7.552;2022-10-17T12:25:33;100246.75;;;22.29;100.00
68941;BME280;55982;51.476;7.552;2022-10-17T12:30:31;100239.41;;;22.09;100.00
68941;BME280;55982;51.476;7.552;2022-10-17T12:33:15;100242.19;;;22.07;100.00
68941;BME280;55982;51.476;7.552;2022-10-17T12:49:22;100273.00;;;22.46;100.00
68941;BME280;55982;51.476;7.552;2022-10-17T12:52:04;100279.31;;;22.45;100.00
68941;BME280;55982;51.476;7.552;2022-10-17T12:54:30;100271.94;;;22.25;100.00
68941;BME280;55982;51.476;7.552;2022-10-17T12:57:01;100267.13;;;22.30;100.00
68941;BME280;55982;51.476;7.552;2022-10-17T12:59:28;100272.84;;;22.36;100.00
68941;BME280;55982;51.476;7.552;2022-10-17T13:01:57;100270.06;;;22.14;100.00
68941;BME280;55982;51.476;7.552;2022-10-17T13:04:24;100261.75;;;22.19;100.00
68941;BME280;55982;51.476;7.552;2022-10-17T13:06:53;100259.63;;;22.11;100.00
68941;BME280;55982;51.476;7.552;2022-10-17T13:09:29;100269.22;;;22.14;100.00
68941;BME280;55982;51.476;7.552;2022-10-17T13:11:55;100273.13;;;21.97;100.00
68941;BME280;55982;51.476;7.552;2022-10-17T13:14:24;100281.44;;;21.93;100.00
68941;BME280;55982;51.476;7.552;2022-10-17T13:16:52;100276.53;;;21.87;100.00
68941;BME280;55982;51.476;7.552;2022-10-17T13:19:20;100277.81;;;21.94;100.00
68941;BME280;55982;51.476;7.552;2022-10-17T13:21:54;100279.56;;;22.06;100.00
68941;BME280;55982;51.476;7.552;2022-10-17T13:24:30;100276.91;;;22.06;100.00
68941;BME280;55982;51.476;7.552;2022-10-17T13:26:57;100286.56;;;21.96;100.00
68941;BME280;55982;51.476;7.552;2022-10-17T13:29:23;100297.63;;;21.77;100.00
68941;BME280;55982;51.476;7.552;2022-10-17T13:31:54;100294.25;;;21.62;100.00
68941;BME280;55982;51.476;7.552;2022-10-17T13:34:23;100303.66;;;21.55;100.00
68941;BME280;55982;51.476;7.552;2022-10-17T13:36:51;100310.25;;;21.37;100.00
68941;BME280;55982;51.476;7.552;2022-10-17T13:39:20;100303.66;;;21.30;100.00
68941;BME280;55982;51.476;7.552;2022-10-17T13:41:46;100316.66;;;21.22;100.00
68941;BME280;55982;51.476;7.552;2022-10-17T13:44:16;100320.34;;;21.20;100.00
68941;BME280;55982;51.476;7.552;2022-10-17T13:46:43;100316.22;;;21.28;100.00
68941;BME280;55982;51.476;7.552;2022-10-17T13:49:12;100321.56;;;21.28;100.00
68941;BME280;55982;51.476;7.552;2022-10-17T13:51:42;100331.53;;;21.25;100.00
68941;BME280;55982;51.476;7.552;2022-10-17T13:54:41;100335.38;;;21.21;100.00
68941;BME280;55982;51.476;7.552;2022-10-17T13:57:28;100332.38;;;21.25;100.00
68941;BME280;55982;51.476;7.552;2022-10-17T13:59:58;100339.00;;;21.20;100.00
68941;BME280;55982;51.476;7.552;2022-10-17T14:02:30;100339.19;;;21.04;100.00
68941;BME280;55982;51.476;7.552;2022-10-17T14:10:21;100341.44;;;20.83;100.00
68941;BME280;55982;51.476;7.552;2022-10-17T14:12:47;100348.22;;;20.75;100.00
68941;BME280;55982;51.476;7.552;2022-10-17T14:15:14;100342.50;;;20.81;100.00
68941;BME280;55982;51.476;7.552;2022-10-17T14:17:41;100348.22;;;20.75;100.00
68941;BME280;55982;51.476;7.552;2022-10-17T14:20:16;100349.94;;;20.76;100.00
68941;BME280;55982;51.476;7.552;2022-10-17T14:22:42;100347.97;;;20.65;100.00
68941;BME280;55982;51.476;7.552;2022-10-17T14:28:02;100350.31;;;20.57;100.00
68941;BME280;55982;51.476;7.552;2022-10-17T14:30:37;100359.03;;;20.59;100.00
68941;BME280;55982;51.476;7.552;2022-10-17T14:33:06;100357.81;;;20.51;100.00
68941;BME280;55982;51.476;7.552;2022-10-17T14:35:33;100356.53;;;20.44;100.00
68941;BME280;55982;51.476;7.552;2022-10-17T14:38:01;100360.84;;;20.32;100.00
68941;BME280;55982;51.476;7.552;2022-10-17T14:40:28;100348.69;;;20.28;100.00
68941;BME280;55982;51.476;7.552;2022-10-17T14:42:56;100351.25;;;20.30;100.00
68941;BME280;55982;51.476;7.552;2022-10-17T14:45:29;100352.75;;;20.34;100.00
68941;BME280;55982;51.476;7.552;2022-10-17T14:48:01;100359.19;;;20.44;100.00
68941;BME280;55982;51.476;7.552;2022-10-17T14:50:29;100364.09;;;20.50;100.00
68941;BME280;55982;51.476;7.552;2022-10-17T14:53:19;100368.47;;;20.51;100.00